sensor_id;sensor_type;location;lat;lon;timestamp;P1;durP1;ratioP1;P2;durP2;ratioP2
65996;SDS011;52765;52.258;21.052;2023-07-24T00:01:43;9.35;;;5.40;;
65996;SDS011;52765;52.258;21.052;2023-07-24T00:04:09;11.07;;;6.55;;
65996;SDS011;52765;52.258;21.052;2023-07-24T00:06:34;11.02;;;5.95;;
65996;SDS011;52765;52.258;21.052;2023-07-24T00:09:00;11.45;;;6.07;;
65996;SDS011;52765;52.258;21.052;2023-07-24T00:11:25;10.48;;;6.43;;
65996;SDS011;52765;52.258;21.052;2023-07-24T00:13:51;11.57;;;6.45;;
65996;SDS011;52765;52.258;21.052;2023-07-24T00:16:16;10.35;;;5.72;;
65996;SDS011;52765;52.258;21.052;2023-07-24T00:18:41;10.18;;;6.13;;
65996;SDS011;52765;52.258;21.052;2023-07-24T00:21:07;8.85;;;5.35;;
65996;SDS011;52765;52.258;21.052;2023-07-24T00:23:32;10.95;;;5.88;;
65996;SDS011;52765;52.258;21.052;2023-07-24T00:25:58;9.88;;;5.43;;
65996;SDS011;52765;52.258;21.052;2023-07-24T00:28:23;11.68;;;5.70;;
65996;SDS011;52765;52.258;21.052;2023-07-24T00:30:49;8.45;;;5.57;;
65996;SDS011;52765;52.258;21.052;2023-07-24T00:33:14;9.45;;;6.32;;
65996;SDS011;52765;52.258;21.052;2023-07-24T00:35:40;14.07;;;6.32;;
65996;SDS011;52765;52.258;21.052;2023-07-24T00:38:05;9.93;;;6.18;;
65996;SDS011;52765;52.258;21.052;2023-07-24T00:40:31;9.15;;;6.10;;
65996;SDS011;52765;52.258;21.052;2023-07-24T00:42:56;11.88;;;5.80;;
65996;SDS011;52765;52.258;21.052;2023-07-24T00:45:22;10.18;;;5.15;;
65996;SDS011;52765;52.258;21.052;2023-07-24T00:47:47;11.82;;;6.30;;
65996;SDS011;52765;52.258;21.052;2023-07-24T00:50:13;10.45;;;5.70;;
65996;SDS011;52765;52.258;21.052;2023-07-24T00:52:39;10.25;;;5.45;;
65996;SDS011;52765;52.258;21.052;2023-07-24T00:55:06;7.88;;;4.63;;
65996;SDS011;52765;52.258;21.052;2023-07-24T00:57:32;12.35;;;5.03;;
65996;SDS011;52765;52.258;21.052;2023-07-24T00:59:58;6.40;;;4.50;;
65996;SDS011;52765;52.258;21.052;2023-07-24T01:02:25;7.90;;;4.78;;
65996;SDS011;52765;52.258;21.052;2023-07-24T01:04:50;8.63;;;5.05;;
65996;SDS011;52765;52.258;21.052;2023-07-24T01:07:16;8.23;;;4.32;;
65996;SDS011;52765;52.258;21.052;2023-07-24T01:09:42;8.23;;;4.97;;
65996;SDS011;52765;52.258;21.052;2023-07-24T01:12:10;9.25;;;5.22;;
65996;SDS011;52765;52.258;21.052;2023-07-24T01:14:50;9.05;;;4.55;;
65996;SDS011;52765;52.258;21.052;2023-07-24T01:17:22;6.72;;;4.38;;
65996;SDS011;52765;52.258;21.052;2023-07-24T01:19:52;9.45;;;4.53;;
65996;SDS011;52765;52.258;21.052;2023-07-24T01:22:24;12.57;;;4.57;;
65996;SDS011;52765;52.258;21.052;2023-07-24T01:27:35;7.40;;;4.45;;
65996;SDS011;52765;52.258;21.052;2023-07-24T01:30:00;9.35;;;4.22;;
65996;SDS011;52765;52.258;21.052;2023-07-24T01:32:26;7.65;;;4.00;;
65996;SDS011;52765;52.258;21.052;2023-07-24T01:34:52;7.82;;;3.97;;
65996;SDS011;52765;52.258;21.052;2023-07-24T01:37:18;10.35;;;4.72;;
65996;SDS011;52765;52.258;21.052;2023-07-24T01:39:45;7.68;;;3.72;;
65996;SDS011;52765;52.258;21.052;2023-07-24T01:42:11;6.95;;;3.85;;
65996;SDS011;52765;52.258;21.052;2023-07-24T01:44:38;5.60;;;3.85;;
65996;SDS011;52765;52.258;21.052;2023-07-24T01:47:03;8.90;;;4.03;;
65996;SDS011;52765;52.258;21.052;2023-07-24T01:49:29;6.97;;;4.50;;
65996;SDS011;52765;52.258;21.052;2023-07-24T01:51:54;8.68;;;3.83;;
65996;SDS011;52765;52.258;21.052;2023-07-24T01:54:19;8.30;;;3.85;;
65996;SDS011;52765;52.258;21.052;2023-07-24T01:56:45;8.48;;;3.90;;
65996;SDS011;52765;52.258;21.052;2023-07-24T01:59:10;7.45;;;3.45;;
65996;SDS011;52765;52.258;21.052;2023-07-24T02:01:36;6.50;;;4.07;;
65996;SDS011;52765;52.258;21.052;2023-07-24T02:04:01;5.28;;;3.70;;
65996;SDS011;52765;52.258;21.052;2023-07-24T02:06:27;5.93;;;3.42;;
65996;SDS011;52765;52.258;21.052;2023-07-24T02:08:52;6.38;;;3.60;;
65996;SDS011;52765;52.258;21.052;2023-07-24T02:11:18;8.00;;;3.45;;
65996;SDS011;52765;52.258;21.052;2023-07-24T02:13:44;5.85;;;3.40;;
65996;SDS011;52765;52.258;21.052;2023-07-24T02:16:10;6.57;;;3.17;;
65996;SDS011;52765;52.258;21.052;2023-07-24T02:18:36;10.07;;;3.40;;
65996;SDS011;52765;52.258;21.052;2023-07-24T02:21:02;8.45;;;3.45;;
65996;SDS011;52765;52.258;21.052;2023-07-24T02:23:28;7.90;;;3.42;;
65996;SDS011;52765;52.258;21.052;2023-07-24T02:25:53;6.68;;;2.97;;
65996;SDS011;52765;52.258;21.052;2023-07-24T02:28:19;8.43;;;3.67;;
65996;SDS011;52765;52.258;21.052;2023-07-24T02:30:46;4.97;;;3.10;;
65996;SDS011;52765;52.258;21.052;2023-07-24T02:33:12;6.43;;;3.15;;
65996;SDS011;52765;52.258;21.052;2023-07-24T02:35:40;8.55;;;3.20;;
65996;SDS011;52765;52.258;21.052;2023-07-24T02:38:07;6.93;;;3.08;;
65996;SDS011;52765;52.258;21.052;2023-07-24T02:40:33;8.52;;;3.38;;
65996;SDS011;52765;52.258;21.052;2023-07-24T02:42:58;7.25;;;3.10;;
65996;SDS011;52765;52.258;21.052;2023-07-24T02:45:24;5.38;;;2.97;;
65996;SDS011;52765;52.258;21.052;2023-07-24T02:47:49;8.75;;;3.08;;
65996;SDS011;52765;52.258;21.052;2023-07-24T02:50:15;4.10;;;3.10;;
65996;SDS011;52765;52.258;21.052;2023-07-24T02:52:40;7.63;;;3.38;;
65996;SDS011;52765;52.258;21.052;2023-07-24T02:55:06;6.22;;;2.80;;
65996;SDS011;52765;52.258;21.052;2023-07-24T02:57:31;5.28;;;2.80;;
65996;SDS011;52765;52.258;21.052;2023-07-24T02:59:57;8.30;;;3.50;;
65996;SDS011;52765;52.258;21.052;2023-07-24T03:02:22;6.70;;;3.17;;
65996;SDS011;52765;52.258;21.052;2023-07-24T03:04:47;6.03;;;3.40;;
65996;SDS011;52765;52.258;21.052;2023-07-24T03:07:13;9.70;;;3.28;;
65996;SDS011;52765;52.258;21.052;2023-07-24T03:09:38;6.90;;;3.22;;
65996;SDS011;52765;52.258;21.052;2023-07-24T03:12:04;7.10;;;3.13;;
65996;SDS011;52765;52.258;21.052;2023-07-24T03:14:29;5.70;;;3.53;;
65996;SDS011;52765;52.258;21.052;2023-07-24T03:16:55;7.28;;;3.40;;
65996;SDS011;52765;52.258;21.052;2023-07-24T03:19:20;5.80;;;3.45;;
65996;SDS011;52765;52.258;21.052;2023-07-24T03:21:45;5.07;;;3.33;;
65996;SDS011;52765;52.258;21.052;2023-07-24T03:24:11;4.90;;;3.28;;
65996;SDS011;52765;52.258;21.052;2023-07-24T03:26:36;9.98;;;3.70;;
65996;SDS011;52765;52.258;21.052;2023-07-24T03:29:03;5.72;;;3.40;;
65996;SDS011;52765;52.258;21.052;2023-07-24T03:31:29;13.40;;;8.38;;
65996;SDS011;52765;52.258;21.052;2023-07-24T03:33:55;6.25;;;3.72;;
65996;SDS011;52765;52.258;21.052;2023-07-24T03:36:20;5.90;;;3.42;;
65996;SDS011;52765;52.258;21.052;2023-07-24T03:38:45;6.35;;;3.50;;
65996;SDS011;52765;52.258;21.052;2023-07-24T03:41:11;6.28;;;3.30;;
65996;SDS011;52765;52.258;21.052;2023-07-24T03:43:36;4.93;;;3.05;;
65996;SDS011;52765;52.258;21.052;2023-07-24T03:46:02;3.67;;;2.88;;
65996;SDS011;52765;52.258;21.052;2023-07-24T03:48:28;6.00;;;3.25;;
65996;SDS011;52765;52.258;21.052;2023-07-24T03:50:59;5.63;;;2.92;;
65996;SDS011;52765;52.258;21.052;2023-07-24T03:53:26;4.97;;;2.95;;
65996;SDS011;52765;52.258;21.052;2023-07-24T03:55:51;8.45;;;3.20;;
65996;SDS011;52765;52.258;21.052;2023-07-24T03:58:21;6.32;;;2.88;;
65996;SDS011;52765;52.258;21.052;2023-07-24T04:00:53;5.32;;;2.75;;
65996;SDS011;52765;52.258;21.052;2023-07-24T04:03:19;8.40;;;3.13;;
65996;SDS011;52765;52.258;21.052;2023-07-24T04:05:44;6.53;;;2.97;;
65996;SDS011;52765;52.258;21.052;2023-07-24T04:08:09;5.53;;;2.92;;
65996;SDS011;52765;52.258;21.052;2023-07-24T04:10:35;5.32;;;3.20;;
65996;SDS011;52765;52.258;21.052;2023-07-24T04:13:00;5.18;;;2.65;;
65996;SDS011;52765;52.258;21.052;2023-07-24T04:15:26;4.43;;;2.72;;
65996;SDS011;52765;52.258;21.052;2023-07-24T04:17:51;4.95;;;2.90;;
65996;SDS011;52765;52.258;21.052;2023-07-24T04:20:17;6.88;;;2.95;;
65996;SDS011;52765;52.258;21.052;2023-07-24T04:22:42;3.22;;;2.25;;
65996;SDS011;52765;52.258;21.052;2023-07-24T04:25:08;7.00;;;2.90;;
65996;SDS011;52765;52.258;21.052;2023-07-24T04:27:33;7.43;;;3.17;;
65996;SDS011;52765;52.258;21.052;2023-07-24T04:29:59;6.50;;;2.60;;
65996;SDS011;52765;52.258;21.052;2023-07-24T04:32:25;6.93;;;3.10;;
65996;SDS011;52765;52.258;21.052;2023-07-24T04:34:52;5.78;;;3.00;;
65996;SDS011;52765;52.258;21.052;2023-07-24T04:37:17;7.03;;;2.90;;
65996;SDS011;52765;52.258;21.052;2023-07-24T04:39:43;4.57;;;2.63;;
65996;SDS011;52765;52.258;21.052;2023-07-24T04:42:09;5.93;;;2.70;;
65996;SDS011;52765;52.258;21.052;2023-07-24T04:44:34;4.28;;;2.70;;
65996;SDS011;52765;52.258;21.052;2023-07-24T04:47:00;7.47;;;2.85;;
65996;SDS011;52765;52.258;21.052;2023-07-24T04:49:30;7.63;;;3.17;;
65996;SDS011;52765;52.258;21.052;2023-07-24T04:51:57;4.80;;;2.65;;
65996;SDS011;52765;52.258;21.052;2023-07-24T04:54:22;7.57;;;2.70;;
65996;SDS011;52765;52.258;21.052;2023-07-24T04:56:48;7.15;;;2.92;;
65996;SDS011;52765;52.258;21.052;2023-07-24T04:59:13;6.68;;;2.45;;
65996;SDS011;52765;52.258;21.052;2023-07-24T05:01:39;4.45;;;2.78;;
65996;SDS011;52765;52.258;21.052;2023-07-24T05:04:04;5.00;;;2.60;;
65996;SDS011;52765;52.258;21.052;2023-07-24T05:06:29;5.28;;;2.80;;
65996;SDS011;52765;52.258;21.052;2023-07-24T05:08:55;4.93;;;2.80;;
65996;SDS011;52765;52.258;21.052;2023-07-24T05:11:20;6.03;;;3.05;;
65996;SDS011;52765;52.258;21.052;2023-07-24T05:13:46;4.63;;;2.60;;
65996;SDS011;52765;52.258;21.052;2023-07-24T05:16:11;5.00;;;2.92;;
65996;SDS011;52765;52.258;21.052;2023-07-24T05:18:37;4.38;;;2.80;;
65996;SDS011;52765;52.258;21.052;2023-07-24T05:21:02;7.20;;;3.05;;
65996;SDS011;52765;52.258;21.052;2023-07-24T05:23:27;5.90;;;2.55;;
65996;SDS011;52765;52.258;21.052;2023-07-24T05:26:01;6.10;;;2.63;;
65996;SDS011;52765;52.258;21.052;2023-07-24T05:28:29;4.22;;;2.60;;
65996;SDS011;52765;52.258;21.052;2023-07-24T05:30:55;4.93;;;2.78;;
65996;SDS011;52765;52.258;21.052;2023-07-24T05:33:24;4.75;;;2.70;;
65996;SDS011;52765;52.258;21.052;2023-07-24T05:35:49;7.40;;;2.83;;
65996;SDS011;52765;52.258;21.052;2023-07-24T05:38:15;4.80;;;2.70;;
65996;SDS011;52765;52.258;21.052;2023-07-24T05:40:40;4.78;;;2.42;;
65996;SDS011;52765;52.258;21.052;2023-07-24T05:43:06;6.15;;;2.83;;
65996;SDS011;52765;52.258;21.052;2023-07-24T05:45:31;5.25;;;2.30;;
65996;SDS011;52765;52.258;21.052;2023-07-24T05:47:56;4.30;;;3.03;;
65996;SDS011;52765;52.258;21.052;2023-07-24T05:50:22;4.75;;;2.60;;
65996;SDS011;52765;52.258;21.052;2023-07-24T05:52:47;8.80;;;3.50;;
65996;SDS011;52765;52.258;21.052;2023-07-24T05:55:13;6.00;;;2.92;;
65996;SDS011;52765;52.258;21.052;2023-07-24T05:57:38;6.70;;;3.30;;
65996;SDS011;52765;52.258;21.052;2023-07-24T06:00:05;8.20;;;3.15;;
65996;SDS011;52765;52.258;21.052;2023-07-24T06:02:31;6.35;;;3.00;;
65996;SDS011;52765;52.258;21.052;2023-07-24T06:04:57;6.10;;;3.08;;
65996;SDS011;52765;52.258;21.052;2023-07-24T06:07:22;5.05;;;2.60;;
65996;SDS011;52765;52.258;21.052;2023-07-24T06:09:48;5.47;;;3.08;;
65996;SDS011;52765;52.258;21.052;2023-07-24T06:12:13;4.90;;;2.38;;
65996;SDS011;52765;52.258;21.052;2023-07-24T06:14:39;4.30;;;2.63;;
65996;SDS011;52765;52.258;21.052;2023-07-24T06:17:04;8.30;;;3.00;;
65996;SDS011;52765;52.258;21.052;2023-07-24T06:19:30;7.30;;;3.08;;
65996;SDS011;52765;52.258;21.052;2023-07-24T06:21:55;4.78;;;2.60;;
65996;SDS011;52765;52.258;21.052;2023-07-24T06:24:21;6.82;;;2.67;;
65996;SDS011;52765;52.258;21.052;2023-07-24T06:26:48;6.60;;;2.85;;
65996;SDS011;52765;52.258;21.052;2023-07-24T06:29:14;5.63;;;2.67;;
65996;SDS011;52765;52.258;21.052;2023-07-24T06:31:39;6.90;;;3.20;;
65996;SDS011;52765;52.258;21.052;2023-07-24T06:34:05;5.20;;;2.80;;
65996;SDS011;52765;52.258;21.052;2023-07-24T06:36:30;6.03;;;2.55;;
65996;SDS011;52765;52.258;21.052;2023-07-24T06:38:55;7.35;;;2.85;;
65996;SDS011;52765;52.258;21.052;2023-07-24T06:41:21;4.57;;;2.70;;
65996;SDS011;52765;52.258;21.052;2023-07-24T06:43:48;6.35;;;3.33;;
65996;SDS011;52765;52.258;21.052;2023-07-24T06:46:13;4.90;;;2.65;;
65996;SDS011;52765;52.258;21.052;2023-07-24T06:48:39;5.20;;;2.70;;
65996;SDS011;52765;52.258;21.052;2023-07-24T06:51:04;5.05;;;2.75;;
65996;SDS011;52765;52.258;21.052;2023-07-24T06:53:29;5.95;;;2.80;;
65996;SDS011;52765;52.258;21.052;2023-07-24T06:55:55;6.45;;;3.05;;
65996;SDS011;52765;52.258;21.052;2023-07-24T06:58:20;5.25;;;3.20;;
65996;SDS011;52765;52.258;21.052;2023-07-24T07:00:46;6.70;;;2.80;;
65996;SDS011;52765;52.258;21.052;2023-07-24T07:03:11;6.32;;;2.78;;
65996;SDS011;52765;52.258;21.052;2023-07-24T07:05:36;7.78;;;2.83;;
65996;SDS011;52765;52.258;21.052;2023-07-24T07:08:02;3.97;;;2.60;;
65996;SDS011;52765;52.258;21.052;2023-07-24T07:10:31;5.28;;;2.70;;
65996;SDS011;52765;52.258;21.052;2023-07-24T07:12:57;5.43;;;2.75;;
65996;SDS011;52765;52.258;21.052;2023-07-24T07:15:22;6.32;;;2.63;;
65996;SDS011;52765;52.258;21.052;2023-07-24T07:17:48;8.82;;;3.08;;
65996;SDS011;52765;52.258;21.052;2023-07-24T07:20:13;6.18;;;2.88;;
65996;SDS011;52765;52.258;21.052;2023-07-24T07:22:38;3.83;;;2.60;;
65996;SDS011;52765;52.258;21.052;2023-07-24T07:25:04;4.88;;;2.55;;
65996;SDS011;52765;52.258;21.052;2023-07-24T07:27:30;4.70;;;2.60;;
65996;SDS011;52765;52.258;21.052;2023-07-24T07:29:55;5.55;;;2.85;;
65996;SDS011;52765;52.258;21.052;2023-07-24T07:32:20;8.23;;;2.63;;
65996;SDS011;52765;52.258;21.052;2023-07-24T07:34:46;6.72;;;2.70;;
65996;SDS011;52765;52.258;21.052;2023-07-24T07:37:11;6.25;;;3.08;;
65996;SDS011;52765;52.258;21.052;2023-07-24T07:39:37;6.63;;;2.50;;
65996;SDS011;52765;52.258;21.052;2023-07-24T07:42:05;6.82;;;2.50;;
65996;SDS011;52765;52.258;21.052;2023-07-24T07:44:30;10.07;;;2.40;;
65996;SDS011;52765;52.258;21.052;2023-07-24T07:46:56;4.53;;;3.00;;
65996;SDS011;52765;52.258;21.052;2023-07-24T07:49:21;5.30;;;2.47;;
65996;SDS011;52765;52.258;21.052;2023-07-24T07:51:47;6.53;;;2.40;;
65996;SDS011;52765;52.258;21.052;2023-07-24T07:54:12;4.63;;;2.58;;
65996;SDS011;52765;52.258;21.052;2023-07-24T07:56:38;5.53;;;2.42;;
65996;SDS011;52765;52.258;21.052;2023-07-24T07:59:03;5.32;;;2.90;;
65996;SDS011;52765;52.258;21.052;2023-07-24T08:01:29;5.40;;;2.58;;
65996;SDS011;52765;52.258;21.052;2023-07-24T08:03:55;7.47;;;2.35;;
65996;SDS011;52765;52.258;21.052;2023-07-24T08:06:21;3.97;;;2.42;;
65996;SDS011;52765;52.258;21.052;2023-07-24T08:08:46;4.88;;;2.60;;
65996;SDS011;52765;52.258;21.052;2023-07-24T08:11:12;4.68;;;2.53;;
65996;SDS011;52765;52.258;21.052;2023-07-24T08:13:37;5.03;;;2.42;;
65996;SDS011;52765;52.258;21.052;2023-07-24T08:16:03;3.90;;;2.42;;
65996;SDS011;52765;52.258;21.052;2023-07-24T08:18:29;5.53;;;2.67;;
65996;SDS011;52765;52.258;21.052;2023-07-24T08:20:55;5.95;;;3.58;;
65996;SDS011;52765;52.258;21.052;2023-07-24T08:23:20;6.95;;;3.08;;
65996;SDS011;52765;52.258;21.052;2023-07-24T08:25:55;6.35;;;2.47;;
65996;SDS011;52765;52.258;21.052;2023-07-24T08:28:21;2.60;;;1.90;;
65996;SDS011;52765;52.258;21.052;2023-07-24T08:30:55;6.32;;;2.80;;
65996;SDS011;52765;52.258;21.052;2023-07-24T08:33:22;5.47;;;2.33;;
65996;SDS011;52765;52.258;21.052;2023-07-24T08:35:56;5.78;;;2.72;;
65996;SDS011;52765;52.258;21.052;2023-07-24T08:38:26;4.47;;;2.78;;
65996;SDS011;52765;52.258;21.052;2023-07-24T08:41:07;5.28;;;2.88;;
65996;SDS011;52765;52.258;21.052;2023-07-24T08:43:39;4.70;;;2.42;;
65996;SDS011;52765;52.258;21.052;2023-07-24T08:46:09;4.28;;;2.38;;
65996;SDS011;52765;52.258;21.052;2023-07-24T08:48:38;5.28;;;2.70;;
65996;SDS011;52765;52.258;21.052;2023-07-24T08:51:06;5.03;;;2.35;;
65996;SDS011;52765;52.258;21.052;2023-07-24T08:53:34;5.10;;;2.95;;
65996;SDS011;52765;52.258;21.052;2023-07-24T08:56:04;5.13;;;2.42;;
65996;SDS011;52765;52.258;21.052;2023-07-24T08:58:31;7.72;;;2.80;;
65996;SDS011;52765;52.258;21.052;2023-07-24T09:00:56;3.75;;;2.53;;
65996;SDS011;52765;52.258;21.052;2023-07-24T09:03:22;4.57;;;2.35;;
65996;SDS011;52765;52.258;21.052;2023-07-24T09:05:48;5.22;;;2.83;;
65996;SDS011;52765;52.258;21.052;2023-07-24T09:08:14;3.70;;;2.38;;
65996;SDS011;52765;52.258;21.052;2023-07-24T09:10:40;3.70;;;2.83;;
65996;SDS011;52765;52.258;21.052;2023-07-24T09:13:05;6.80;;;2.95;;
65996;SDS011;52765;52.258;21.052;2023-07-24T09:15:44;5.53;;;2.90;;
65996;SDS011;52765;52.258;21.052;2023-07-24T09:18:09;4.53;;;2.70;;
65996;SDS011;52765;52.258;21.052;2023-07-24T09:20:39;4.25;;;2.63;;
65996;SDS011;52765;52.258;21.052;2023-07-24T09:23:06;3.60;;;2.50;;
65996;SDS011;52765;52.258;21.052;2023-07-24T09:25:34;7.10;;;3.25;;
65996;SDS011;52765;52.258;21.052;2023-07-24T09:28:01;13.45;;;3.15;;
65996;SDS011;52765;52.258;21.052;2023-07-24T09:30:33;5.95;;;2.63;;
65996;SDS011;52765;52.258;21.052;2023-07-24T09:32:59;4.28;;;2.90;;
65996;SDS011;52765;52.258;21.052;2023-07-24T09:35:30;5.13;;;2.38;;
65996;SDS011;52765;52.258;21.052;2023-07-24T09:38:04;5.50;;;2.80;;
65996;SDS011;52765;52.258;21.052;2023-07-24T09:40:41;5.90;;;2.50;;
65996;SDS011;52765;52.258;21.052;2023-07-24T09:43:41;4.47;;;2.53;;
65996;SDS011;52765;52.258;21.052;2023-07-24T09:46:02;5.80;;;2.53;;
65996;SDS011;52765;52.258;21.052;2023-07-24T09:48:31;5.53;;;2.22;;
65996;SDS011;52765;52.258;21.052;2023-07-24T09:51:00;4.30;;;2.47;;
65996;SDS011;52765;52.258;21.052;2023-07-24T09:56:07;5.03;;;2.60;;
65996;SDS011;52765;52.258;21.052;2023-07-24T09:58:34;5.55;;;2.40;;
65996;SDS011;52765;52.258;21.052;2023-07-24T10:01:03;3.15;;;2.20;;
65996;SDS011;52765;52.258;21.052;2023-07-24T10:03:38;5.07;;;2.35;;
65996;SDS011;52765;52.258;21.052;2023-07-24T10:06:05;4.13;;;2.65;;
65996;SDS011;52765;52.258;21.052;2023-07-24T10:08:35;5.10;;;3.58;;
65996;SDS011;52765;52.258;21.052;2023-07-24T10:11:03;4.15;;;2.83;;
65996;SDS011;52765;52.258;21.052;2023-07-24T10:13:29;6.40;;;2.97;;
65996;SDS011;52765;52.258;21.052;2023-07-24T10:15:55;4.97;;;2.42;;
65996;SDS011;52765;52.258;21.052;2023-07-24T10:18:28;5.68;;;2.50;;
65996;SDS011;52765;52.258;21.052;2023-07-24T10:21:06;3.15;;;2.38;;
65996;SDS011;52765;52.258;21.052;2023-07-24T10:23:36;8.00;;;2.83;;
65996;SDS011;52765;52.258;21.052;2023-07-24T10:26:06;5.33;;;2.47;;
65996;SDS011;52765;52.258;21.052;2023-07-24T10:28:36;8.45;;;3.33;;
65996;SDS011;52765;52.258;21.052;2023-07-24T10:31:27;5.25;;;3.00;;
65996;SDS011;52765;52.258;21.052;2023-07-24T10:33:52;6.15;;;2.60;;
65996;SDS011;52765;52.258;21.052;2023-07-24T10:36:19;4.68;;;2.38;;
65996;SDS011;52765;52.258;21.052;2023-07-24T10:38:51;3.38;;;2.53;;
65996;SDS011;52765;52.258;21.052;2023-07-24T10:41:18;3.55;;;2.33;;
65996;SDS011;52765;52.258;21.052;2023-07-24T10:43:44;4.53;;;2.50;;
65996;SDS011;52765;52.258;21.052;2023-07-24T10:46:11;5.43;;;2.58;;
65996;SDS011;52765;52.258;21.052;2023-07-24T10:48:37;3.75;;;2.60;;
65996;SDS011;52765;52.258;21.052;2023-07-24T10:51:07;5.35;;;3.10;;
65996;SDS011;52765;52.258;21.052;2023-07-24T10:53:34;6.47;;;3.47;;
65996;SDS011;52765;52.258;21.052;2023-07-24T10:56:06;6.28;;;2.92;;
65996;SDS011;52765;52.258;21.052;2023-07-24T10:58:32;5.05;;;2.38;;
65996;SDS011;52765;52.258;21.052;2023-07-24T11:01:00;5.15;;;3.00;;
65996;SDS011;52765;52.258;21.052;2023-07-24T11:03:29;4.53;;;2.88;;
65996;SDS011;52765;52.258;21.052;2023-07-24T11:05:56;4.55;;;2.75;;
65996;SDS011;52765;52.258;21.052;2023-07-24T11:08:22;3.88;;;2.83;;
65996;SDS011;52765;52.258;21.052;2023-07-24T11:10:49;6.18;;;2.72;;
65996;SDS011;52765;52.258;21.052;2023-07-24T11:13:20;5.38;;;2.80;;
65996;SDS011;52765;52.258;21.052;2023-07-24T11:15:47;3.42;;;2.35;;
65996;SDS011;52765;52.258;21.052;2023-07-24T11:18:13;3.35;;;2.78;;
65996;SDS011;52765;52.258;21.052;2023-07-24T11:20:51;4.88;;;2.80;;
65996;SDS011;52765;52.258;21.052;2023-07-24T11:23:18;4.03;;;2.80;;
65996;SDS011;52765;52.258;21.052;2023-07-24T11:25:45;9.18;;;3.20;;
65996;SDS011;52765;52.258;21.052;2023-07-24T11:28:12;13.20;;;3.35;;
65996;SDS011;52765;52.258;21.052;2023-07-24T11:30:38;5.70;;;2.90;;
65996;SDS011;52765;52.258;21.052;2023-07-24T11:33:05;6.30;;;3.13;;
65996;SDS011;52765;52.258;21.052;2023-07-24T11:35:32;5.18;;;2.97;;
65996;SDS011;52765;52.258;21.052;2023-07-24T11:37:58;4.30;;;3.20;;
65996;SDS011;52765;52.258;21.052;2023-07-24T11:40:58;13.02;;;7.22;;
65996;SDS011;52765;52.258;21.052;2023-07-24T11:43:20;6.68;;;2.95;;
65996;SDS011;52765;52.258;21.052;2023-07-24T11:45:52;6.60;;;2.90;;
65996;SDS011;52765;52.258;21.052;2023-07-24T11:48:23;4.55;;;3.10;;
65996;SDS011;52765;52.258;21.052;2023-07-24T11:50:52;7.82;;;3.13;;
65996;SDS011;52765;52.258;21.052;2023-07-24T11:55:50;3.95;;;3.03;;
65996;SDS011;52765;52.258;21.052;2023-07-24T11:58:17;4.15;;;2.83;;
65996;SDS011;52765;52.258;21.052;2023-07-24T12:00:43;4.90;;;2.83;;
65996;SDS011;52765;52.258;21.052;2023-07-24T12:03:11;3.90;;;2.80;;
65996;SDS011;52765;52.258;21.052;2023-07-24T12:08:06;5.95;;;3.15;;
65996;SDS011;52765;52.258;21.052;2023-07-24T12:10:35;7.07;;;3.00;;
65996;SDS011;52765;52.258;21.052;2023-07-24T12:13:04;6.28;;;3.17;;
65996;SDS011;52765;52.258;21.052;2023-07-24T12:15:30;3.92;;;2.78;;
65996;SDS011;52765;52.258;21.052;2023-07-24T12:17:56;4.20;;;2.90;;
65996;SDS011;52765;52.258;21.052;2023-07-24T12:20:22;4.97;;;3.00;;
65996;SDS011;52765;52.258;21.052;2023-07-24T12:22:48;5.25;;;2.70;;
65996;SDS011;52765;52.258;21.052;2023-07-24T12:25:15;6.63;;;3.00;;
65996;SDS011;52765;52.258;21.052;2023-07-24T12:27:41;4.32;;;2.97;;
65996;SDS011;52765;52.258;21.052;2023-07-24T12:30:07;4.70;;;2.85;;
65996;SDS011;52765;52.258;21.052;2023-07-24T12:32:33;5.70;;;3.15;;
65996;SDS011;52765;52.258;21.052;2023-07-24T12:34:59;4.43;;;3.22;;
65996;SDS011;52765;52.258;21.052;2023-07-24T12:37:25;6.10;;;3.45;;
65996;SDS011;52765;52.258;21.052;2023-07-24T12:39:50;6.32;;;2.90;;
65996;SDS011;52765;52.258;21.052;2023-07-24T12:42:16;6.13;;;3.10;;
65996;SDS011;52765;52.258;21.052;2023-07-24T12:44:42;6.72;;;3.25;;
65996;SDS011;52765;52.258;21.052;2023-07-24T12:47:09;5.25;;;2.80;;
65996;SDS011;52765;52.258;21.052;2023-07-24T12:49:35;7.18;;;2.80;;
65996;SDS011;52765;52.258;21.052;2023-07-24T12:52:00;3.95;;;3.00;;
65996;SDS011;52765;52.258;21.052;2023-07-24T12:54:27;4.13;;;2.72;;
65996;SDS011;52765;52.258;21.052;2023-07-24T12:56:52;3.55;;;2.38;;
65996;SDS011;52765;52.258;21.052;2023-07-24T12:59:18;4.05;;;3.10;;
65996;SDS011;52765;52.258;21.052;2023-07-24T13:01:44;5.80;;;3.13;;
65996;SDS011;52765;52.258;21.052;2023-07-24T13:04:12;7.05;;;2.85;;
65996;SDS011;52765;52.258;21.052;2023-07-24T13:06:37;3.47;;;2.80;;
65996;SDS011;52765;52.258;21.052;2023-07-24T13:09:03;5.20;;;3.00;;
65996;SDS011;52765;52.258;21.052;2023-07-24T13:11:30;4.38;;;2.97;;
65996;SDS011;52765;52.258;21.052;2023-07-24T13:13:56;4.97;;;2.83;;
65996;SDS011;52765;52.258;21.052;2023-07-24T13:16:22;4.43;;;3.03;;
65996;SDS011;52765;52.258;21.052;2023-07-24T13:18:48;5.75;;;2.67;;
65996;SDS011;52765;52.258;21.052;2023-07-24T13:21:14;5.13;;;3.00;;
65996;SDS011;52765;52.258;21.052;2023-07-24T13:23:40;4.03;;;2.92;;
65996;SDS011;52765;52.258;21.052;2023-07-24T13:26:05;4.68;;;3.10;;
65996;SDS011;52765;52.258;21.052;2023-07-24T13:28:33;6.82;;;3.40;;
65996;SDS011;52765;52.258;21.052;2023-07-24T13:30:59;3.35;;;2.42;;
65996;SDS011;52765;52.258;21.052;2023-07-24T13:33:24;4.60;;;2.88;;
65996;SDS011;52765;52.258;21.052;2023-07-24T13:35:50;4.53;;;3.05;;
65996;SDS011;52765;52.258;21.052;2023-07-24T13:38:18;4.78;;;2.95;;
65996;SDS011;52765;52.258;21.052;2023-07-24T13:40:44;6.95;;;2.85;;
65996;SDS011;52765;52.258;21.052;2023-07-24T13:43:09;5.45;;;3.20;;
65996;SDS011;52765;52.258;21.052;2023-07-24T13:45:35;4.82;;;2.80;;
65996;SDS011;52765;52.258;21.052;2023-07-24T13:48:00;8.43;;;3.65;;
65996;SDS011;52765;52.258;21.052;2023-07-24T13:50:27;9.13;;;3.67;;
65996;SDS011;52765;52.258;21.052;2023-07-24T13:52:52;6.00;;;3.08;;
65996;SDS011;52765;52.258;21.052;2023-07-24T13:55:18;6.00;;;3.55;;
65996;SDS011;52765;52.258;21.052;2023-07-24T13:57:43;7.93;;;3.40;;
65996;SDS011;52765;52.258;21.052;2023-07-24T14:00:11;5.20;;;3.17;;
65996;SDS011;52765;52.258;21.052;2023-07-24T14:02:37;4.05;;;2.92;;
65996;SDS011;52765;52.258;21.052;2023-07-24T14:05:02;5.47;;;3.28;;
65996;SDS011;52765;52.258;21.052;2023-07-24T14:07:28;4.97;;;3.20;;
65996;SDS011;52765;52.258;21.052;2023-07-24T14:09:54;7.60;;;3.53;;
65996;SDS011;52765;52.258;21.052;2023-07-24T14:12:19;8.80;;;3.35;;
65996;SDS011;52765;52.258;21.052;2023-07-24T14:14:47;6.90;;;3.50;;
65996;SDS011;52765;52.258;21.052;2023-07-24T14:17:13;9.13;;;3.58;;
65996;SDS011;52765;52.258;21.052;2023-07-24T14:19:39;5.93;;;3.10;;
65996;SDS011;52765;52.258;21.052;2023-07-24T14:22:05;6.65;;;3.40;;
65996;SDS011;52765;52.258;21.052;2023-07-24T14:24:31;5.80;;;3.60;;
65996;SDS011;52765;52.258;21.052;2023-07-24T14:26:56;6.95;;;4.00;;
65996;SDS011;52765;52.258;21.052;2023-07-24T14:29:22;4.88;;;3.50;;
65996;SDS011;52765;52.258;21.052;2023-07-24T14:31:47;5.60;;;3.97;;
65996;SDS011;52765;52.258;21.052;2023-07-24T14:34:13;4.57;;;3.42;;
65996;SDS011;52765;52.258;21.052;2023-07-24T14:36:38;6.18;;;3.03;;
65996;SDS011;52765;52.258;21.052;2023-07-24T14:39:04;7.25;;;3.20;;
65996;SDS011;52765;52.258;21.052;2023-07-24T14:41:30;5.13;;;2.92;;